createdAt,value
2018-03-17T00:02:31.166Z,77.60
2018-03-17T00:04:58.656Z,76.60
2018-03-17T00:07:26.773Z,76.90
2018-03-17T00:09:54.249Z,77.90
2018-03-17T00:12:29.249Z,78.60
2018-03-17T00:14:56.748Z,78.70
2018-03-17T00:17:24.213Z,77.70
2018-03-17T00:19:51.822Z,78.60
2018-03-17T00:22:20.149Z,76.80
2018-03-17T00:24:47.835Z,76.80
2018-03-17T00:27:16.045Z,76.20
2018-03-17T00:29:43.560Z,76.20
2018-03-17T00:32:11.189Z,76.20
2018-03-17T00:34:38.695Z,77.00
2018-03-17T00:37:06.197Z,77.50
2018-03-17T00:39:33.665Z,77.20
2018-03-17T00:42:02.097Z,76.80
2018-03-17T00:44:29.564Z,76.70
2018-03-17T00:46:57.123Z,76.70
2018-03-17T00:49:24.601Z,76.60
2018-03-17T00:51:52.156Z,76.60
2018-03-17T00:54:19.748Z,75.70
2018-03-17T00:56:47.230Z,75.40
2018-03-17T00:59:14.718Z,74.90
2018-03-17T01:01:42.973Z,76.00
2018-03-17T01:04:10.454Z,76.00
2018-03-17T01:06:39.360Z,76.60
2018-03-17T01:09:07.738Z,75.00
2018-03-17T01:11:35.233Z,74.10
2018-03-17T01:14:03.487Z,74.30
2018-03-17T01:16:30.978Z,74.20
2018-03-17T01:19:21.513Z,75.00
2018-03-17T01:21:49.093Z,75.00
2018-03-17T01:24:16.586Z,74.60
2018-03-17T01:26:44.065Z,74.50
2018-03-17T01:29:11.596Z,76.00
2018-03-17T01:31:39.124Z,75.50
2018-03-17T01:34:06.603Z,74.60
2018-03-17T01:36:34.292Z,75.40
2018-03-17T01:39:02.564Z,75.00
2018-03-17T01:41:30.066Z,75.00
2018-03-17T01:43:57.595Z,74.50
2018-03-17T01:46:25.083Z,74.50
2018-03-17T01:48:53.709Z,74.50
2018-03-17T01:51:33.404Z,74.50
2018-03-17T01:54:12.710Z,75.20
2018-03-17T01:56:40.234Z,74.90
2018-03-17T01:59:07.708Z,74.40
2018-03-17T02:01:35.200Z,74.70
2018-03-17T02:04:03.458Z,74.60
2018-03-17T02:06:30.977Z,74.60
2018-03-17T02:08:58.818Z,74.70
2018-03-17T02:11:29.626Z,74.40
2018-03-17T02:13:57.096Z,73.60
2018-03-17T02:16:24.630Z,74.80
2018-03-17T02:18:53.780Z,74.20
2018-03-17T02:21:21.324Z,74.10
2018-03-17T02:23:48.887Z,74.60
2018-03-17T02:26:16.396Z,73.80
2018-03-17T02:28:56.558Z,73.40
2018-03-17T02:31:24.046Z,73.50
2018-03-17T02:33:51.542Z,73.60
2018-03-17T02:36:19.814Z,74.00
2018-03-17T02:38:47.388Z,74.00
2018-03-17T02:41:14.881Z,74.00
2018-03-17T02:43:54.782Z,74.50
2018-03-17T02:46:22.279Z,75.70
2018-03-17T02:48:50.092Z,74.20
2018-03-17T02:51:17.599Z,74.10
2018-03-17T02:53:45.160Z,75.20
2018-03-17T02:56:12.650Z,75.90
2018-03-17T02:58:47.236Z,75.50
2018-03-17T03:01:14.792Z,74.10
2018-03-17T03:03:43.033Z,74.50
2018-03-17T03:06:10.546Z,74.40
2018-03-17T03:08:38.046Z,73.50
2018-03-17T03:11:05.541Z,74.70
2018-03-17T03:13:33.120Z,73.90
2018-03-17T03:16:04.583Z,73.50
2018-03-17T03:18:32.262Z,73.80
2018-03-17T03:20:59.773Z,74.00
2018-03-17T03:23:28.167Z,74.50
2018-03-17T03:25:56.445Z,73.60
2018-03-17T03:28:36.558Z,73.60
2018-03-17T03:31:04.097Z,74.10
2018-03-17T03:33:32.445Z,74.70
2018-03-17T03:36:00.030Z,74.70
2018-03-17T03:38:27.534Z,73.60
2018-03-17T03:40:55.049Z,73.80
2018-03-17T03:43:22.545Z,74.10
2018-03-17T03:45:50.054Z,74.20
2018-03-17T03:48:17.527Z,74.40
2018-03-17T03:50:45.922Z,74.60
2018-03-17T03:53:13.444Z,74.60
2018-03-17T03:55:40.932Z,74.10
2018-03-17T03:58:09.237Z,74.60
2018-03-17T04:00:36.727Z,74.60
2018-03-17T04:03:04.345Z,75.20
2018-03-17T04:05:31.843Z,74.50
2018-03-17T04:07:59.689Z,74.10
2018-03-17T04:10:27.192Z,74.10
2018-03-17T04:12:54.676Z,74.80
2018-03-17T04:15:22.163Z,74.80
2018-03-17T04:17:49.636Z,74.40
2018-03-17T04:20:17.183Z,74.40
2018-03-17T04:22:44.633Z,74.80
2018-03-17T04:25:12.762Z,74.60
2018-03-17T04:27:40.274Z,73.90
2018-03-17T04:30:08.719Z,73.70
2018-03-17T04:32:36.413Z,73.70
2018-03-17T04:35:04.765Z,74.10
2018-03-17T04:37:32.294Z,74.10
2018-03-17T04:39:59.890Z,73.10
2018-03-17T04:42:27.480Z,73.20
2018-03-17T04:44:55.013Z,73.90
2018-03-17T04:47:22.769Z,73.80
2018-03-17T04:49:50.298Z,73.30
2018-03-17T04:52:17.812Z,73.80
2018-03-17T04:54:45.300Z,74.00
2018-03-17T04:57:13.608Z,75.40
2018-03-17T04:59:41.204Z,74.50
2018-03-17T05:02:08.790Z,73.80
2018-03-17T05:04:36.275Z,73.60
2018-03-17T05:07:03.782Z,73.90
2018-03-17T05:09:32.035Z,74.50
2018-03-17T05:11:59.508Z,74.50
2018-03-17T05:14:26.990Z,75.30
2018-03-17T05:16:55.614Z,73.70
2018-03-17T05:19:23.131Z,73.80
2018-03-17T05:21:50.673Z,73.30
2018-03-17T05:24:18.216Z,74.00
2018-03-17T05:26:45.768Z,73.50
2018-03-17T05:29:13.259Z,73.80
2018-03-17T05:31:42.714Z,73.80
2018-03-17T05:34:11.288Z,74.30
2018-03-17T05:36:38.909Z,74.20
2018-03-17T05:39:07.482Z,74.10
2018-03-17T05:41:35.090Z,74.10
2018-03-17T05:44:03.735Z,74.60
2018-03-17T05:46:31.463Z,74.50
2018-03-17T05:48:59.932Z,73.60
2018-03-17T05:51:28.292Z,73.90
2018-03-17T05:53:55.882Z,73.90
2018-03-17T05:56:23.671Z,72.60
2018-03-17T05:58:53.324Z,72.30
2018-03-17T06:01:21.046Z,73.10
2018-03-17T06:03:48.574Z,73.60
2018-03-17T06:06:16.884Z,73.20
2018-03-17T06:08:44.435Z,73.10
2018-03-17T06:11:11.999Z,73.70
2018-03-17T06:13:40.168Z,73.90
2018-03-17T06:16:07.976Z,73.30
2018-03-17T06:18:36.224Z,73.40
2018-03-17T06:21:03.803Z,73.40
2018-03-17T06:23:31.390Z,73.10
2018-03-17T06:25:59.656Z,73.50
2018-03-17T06:28:29.479Z,73.40
2018-03-17T06:30:57.051Z,72.90
2018-03-17T06:33:24.619Z,71.50
2018-03-17T06:35:52.936Z,71.30
2018-03-17T06:38:20.481Z,71.30
2018-03-17T06:41:03.898Z,71.50
2018-03-17T06:43:31.418Z,72.00
2018-03-17T06:45:59.681Z,72.20
2018-03-17T06:48:27.185Z,72.20
2018-03-17T06:50:55.443Z,72.30
2018-03-17T06:53:26.684Z,72.40
2018-03-17T06:55:54.209Z,71.60
2018-03-17T06:58:21.714Z,71.20
2018-03-17T07:00:49.202Z,72.30
2018-03-17T07:03:16.762Z,71.20
2018-03-17T07:05:45.077Z,71.40
2018-03-17T07:08:12.607Z,71.20
2018-03-17T07:10:40.161Z,71.10
2018-03-17T07:13:07.643Z,71.20
2018-03-17T07:15:35.178Z,70.20
2018-03-17T07:18:03.519Z,69.60
2018-03-17T07:20:31.041Z,69.60
2018-03-17T07:22:59.372Z,70.10
2018-03-17T07:25:26.941Z,70.10
2018-03-17T07:27:54.662Z,71.40
2018-03-17T07:30:22.962Z,69.90
2018-03-17T07:32:51.945Z,69.70
2018-03-17T07:35:19.489Z,69.80
2018-03-17T07:37:47.000Z,70.20
2018-03-17T07:40:16.136Z,70.10
2018-03-17T07:42:44.152Z,69.80
2018-03-17T07:45:11.657Z,69.80
2018-03-17T07:47:39.171Z,69.70
2018-03-17T07:50:26.580Z,70.00
2018-03-17T07:56:03.959Z,69.80
2018-03-17T10:11:56.360Z,65.20
2018-03-17T10:14:25.973Z,65.20
2018-03-17T10:19:56.937Z,63.50
2018-03-17T10:22:26.590Z,64.00
2018-03-17T10:28:55.250Z,62.80
2018-03-17T10:34:45.700Z,63.30
2018-03-17T10:48:57.549Z,63.10
2018-03-17T10:56:59.612Z,63.40
2018-03-17T10:59:27.926Z,63.40
2018-03-17T11:04:55.039Z,62.70
2018-03-17T11:07:45.966Z,63.10
2018-03-17T11:10:29.016Z,63.70
2018-03-17T11:15:57.575Z,64.00
2018-03-17T11:18:27.684Z,63.50
2018-03-17T11:20:58.178Z,63.00
2018-03-17T11:23:27.921Z,63.30
2018-03-17T11:26:00.942Z,63.60
2018-03-17T11:28:29.188Z,63.60
2018-03-17T11:30:57.462Z,63.50
2018-03-17T12:55:55.579Z,60.50
2018-03-17T13:01:46.352Z,61.30
2018-03-17T13:04:15.871Z,61.30
2018-03-17T13:11:13.893Z,61.10
2018-03-17T13:14:15.468Z,61.00
2018-03-17T13:16:47.133Z,61.50
2018-03-17T13:45:17.248Z,61.00
2018-03-17T13:47:46.103Z,61.00
2018-03-17T14:02:16.328Z,61.00
2018-03-17T14:04:48.155Z,60.80
2018-03-17T14:07:19.042Z,60.80
2018-03-17T14:36:18.392Z,61.10
2018-03-17T16:43:54.362Z,61.10
2018-03-17T16:49:15.894Z,60.50
2018-03-17T16:51:46.466Z,60.50
2018-03-17T17:34:16.338Z,60.30
2018-03-17T18:01:20.966Z,61.30
2018-03-17T18:21:46.081Z,63.90
2018-03-17T18:24:17.615Z,63.30
2018-03-17T18:37:16.577Z,63.50
2018-03-17T18:54:46.896Z,62.90
2018-03-17T18:57:16.550Z,63.10
2018-03-17T19:05:47.914Z,63.20
2018-03-17T19:08:15.750Z,62.60
2018-03-17T19:31:49.916Z,62.80
2018-03-17T19:40:18.195Z,63.00
2018-03-17T19:42:49.152Z,63.60
2018-03-17T19:48:15.217Z,63.90
2018-03-17T19:56:45.743Z,63.20
2018-03-17T20:23:15.630Z,63.40
2018-03-17T21:41:38.353Z,64.80
2018-03-17T21:44:38.157Z,64.60
2018-03-17T22:24:19.193Z,64.80
2018-03-17T22:35:15.985Z,64.40
2018-03-17T22:37:45.267Z,65.10
2018-03-17T23:16:16.701Z,64.00
